createdAt,value
2017-11-17T00:01:50.470Z,9.90
2017-11-17T00:04:18.721Z,9.90
2017-11-17T00:06:46.982Z,10.00
2017-11-17T00:09:15.235Z,10.00
2017-11-17T00:11:42.788Z,10.00
2017-11-17T00:14:11.046Z,10.00
2017-11-17T00:16:38.541Z,10.00
2017-11-17T00:19:06.763Z,10.00
2017-11-17T00:21:34.227Z,10.00
2017-11-17T00:24:01.700Z,10.00
2017-11-17T00:26:29.162Z,10.00
2017-11-17T00:28:56.630Z,10.00
2017-11-17T00:31:24.097Z,10.10
2017-11-17T00:33:51.553Z,10.10
2017-11-17T00:36:19.797Z,10.10
2017-11-17T00:38:47.257Z,10.10
2017-11-17T00:41:15.490Z,10.20
2017-11-17T00:43:42.941Z,10.20
2017-11-17T00:46:11.173Z,10.30
2017-11-17T00:48:38.669Z,10.30
2017-11-17T00:51:06.185Z,10.30
2017-11-17T00:53:33.728Z,10.40
2017-11-17T00:56:01.986Z,10.40
2017-11-17T00:58:29.529Z,10.40
2017-11-17T01:00:57.798Z,10.40
2017-11-17T01:03:26.056Z,10.40
2017-11-17T01:05:54.385Z,10.30
2017-11-17T01:08:21.842Z,10.20
2017-11-17T01:10:49.297Z,10.30
2017-11-17T01:13:17.543Z,10.30
2017-11-17T01:15:44.997Z,10.30
2017-11-17T01:18:12.461Z,10.30
2017-11-17T01:20:40.046Z,10.30
2017-11-17T01:23:08.300Z,10.30
2017-11-17T01:25:36.563Z,10.30
2017-11-17T01:28:04.104Z,10.30
2017-11-17T01:30:31.571Z,10.40
2017-11-17T01:32:59.805Z,10.40
2017-11-17T01:35:27.274Z,10.40
2017-11-17T01:37:54.738Z,10.40
2017-11-17T01:40:22.213Z,10.40
2017-11-17T01:42:49.673Z,10.40
2017-11-17T01:45:17.933Z,10.40
2017-11-17T01:47:45.589Z,10.40
2017-11-17T01:50:13.841Z,10.40
2017-11-17T01:52:41.297Z,10.40
2017-11-17T01:55:09.536Z,10.40
2017-11-17T01:57:37.017Z,10.40
2017-11-17T02:00:04.531Z,10.40
2017-11-17T02:02:32.761Z,10.40
2017-11-17T02:05:00.224Z,10.40
2017-11-17T02:07:28.483Z,10.40
2017-11-17T02:09:56.031Z,10.30
2017-11-17T02:12:24.293Z,10.20
2017-11-17T02:14:51.757Z,10.10
2017-11-17T02:17:19.253Z,10.10
2017-11-17T02:19:46.741Z,10.10
2017-11-17T02:22:14.241Z,10.10
2017-11-17T02:24:41.782Z,10.00
2017-11-17T02:27:09.321Z,10.00
2017-11-17T02:29:36.781Z,10.00
2017-11-17T02:32:05.046Z,10.00
2017-11-17T02:34:33.389Z,10.00
2017-11-17T02:37:00.845Z,9.90
2017-11-17T02:39:29.063Z,9.90
2017-11-17T02:41:56.537Z,10.00
2017-11-17T02:44:24.758Z,9.90
2017-11-17T02:46:52.218Z,9.90
2017-11-17T02:49:19.667Z,9.90
2017-11-17T02:51:47.221Z,9.80
2017-11-17T02:54:14.669Z,9.80
2017-11-17T02:56:42.917Z,9.80
2017-11-17T02:59:10.382Z,9.80
2017-11-17T03:01:38.592Z,9.70
2017-11-17T03:04:06.062Z,9.70
2017-11-17T03:06:33.513Z,9.70
2017-11-17T03:09:01.802Z,9.60
2017-11-17T03:11:30.005Z,9.60
2017-11-17T03:13:57.571Z,9.50
2017-11-17T03:16:25.046Z,9.50
2017-11-17T03:18:52.590Z,9.40
2017-11-17T03:21:20.133Z,9.40
2017-11-17T03:23:47.673Z,9.40
2017-11-17T03:26:15.220Z,9.30
2017-11-17T03:28:42.674Z,9.30
2017-11-17T03:31:10.905Z,9.10
2017-11-17T03:33:38.466Z,9.10
2017-11-17T03:36:05.913Z,9.10
2017-11-17T03:38:34.140Z,8.90
2017-11-17T03:41:01.614Z,8.90
2017-11-17T03:43:29.970Z,8.80
2017-11-17T03:45:57.516Z,8.70
2017-11-17T03:48:25.773Z,8.60
2017-11-17T03:50:53.237Z,8.60
2017-11-17T03:53:21.473Z,8.50
2017-11-17T03:55:48.932Z,8.50
2017-11-17T03:58:17.173Z,8.40
2017-11-17T04:00:44.722Z,8.40
2017-11-17T04:03:12.170Z,8.40
2017-11-17T04:05:40.417Z,8.30
2017-11-17T04:08:07.873Z,8.30
2017-11-17T04:10:36.090Z,8.20
2017-11-17T04:13:03.564Z,8.20
2017-11-17T04:15:31.005Z,8.10
2017-11-17T04:17:59.258Z,8.00
2017-11-17T04:20:26.725Z,8.00
2017-11-17T04:22:54.180Z,8.00
2017-11-17T04:25:21.625Z,7.90
2017-11-17T04:27:49.124Z,7.90
2017-11-17T04:30:16.581Z,7.90
2017-11-17T04:32:44.924Z,7.80
2017-11-17T04:35:12.473Z,7.70
2017-11-17T04:37:39.925Z,7.70
2017-11-17T04:40:08.158Z,7.70
2017-11-17T04:42:35.612Z,7.60
2017-11-17T04:45:03.157Z,7.60
2017-11-17T04:47:30.714Z,7.60
2017-11-17T04:49:58.925Z,7.50
2017-11-17T04:52:26.380Z,7.40
2017-11-17T04:54:55.358Z,7.30
2017-11-17T04:57:22.904Z,7.30
2017-11-17T04:59:50.365Z,7.30
2017-11-17T05:02:18.601Z,7.30
2017-11-17T05:04:46.098Z,7.20
2017-11-17T05:07:13.589Z,7.20
2017-11-17T05:09:41.139Z,7.20
2017-11-17T05:12:08.586Z,7.10
2017-11-17T05:14:36.050Z,7.10
2017-11-17T05:17:03.507Z,7.10
2017-11-17T05:19:30.970Z,7.00
2017-11-17T05:21:59.198Z,6.90
2017-11-17T05:24:26.649Z,6.90
2017-11-17T05:26:54.206Z,6.90
2017-11-17T05:29:21.681Z,6.80
2017-11-17T05:31:49.194Z,6.80
2017-11-17T05:34:16.637Z,6.70
2017-11-17T05:36:44.882Z,6.70
2017-11-17T05:39:12.332Z,6.60
2017-11-17T05:41:39.781Z,6.60
2017-11-17T05:44:08.013Z,6.50
2017-11-17T05:46:35.473Z,6.50
2017-11-17T05:49:02.934Z,6.50
2017-11-17T05:51:31.182Z,6.40
2017-11-17T05:53:59.437Z,6.30
2017-11-17T05:56:26.901Z,6.30
2017-11-17T05:58:55.236Z,6.30
2017-11-17T06:01:22.684Z,6.20
2017-11-17T06:03:50.228Z,6.20
2017-11-17T06:06:18.462Z,6.10
2017-11-17T06:08:45.915Z,6.10
2017-11-17T06:11:14.186Z,6.00
2017-11-17T06:13:41.733Z,6.00
2017-11-17T06:16:09.180Z,6.00
2017-11-17T06:18:37.393Z,5.90
2017-11-17T06:21:04.853Z,5.90
2017-11-17T06:23:32.317Z,5.90
2017-11-17T06:25:59.858Z,5.90
2017-11-17T06:28:27.408Z,5.90
2017-11-17T06:30:55.667Z,5.80
2017-11-17T06:33:23.111Z,5.80
2017-11-17T06:35:51.381Z,5.80
2017-11-17T06:38:19.622Z,5.80
2017-11-17T06:40:47.083Z,5.80
2017-11-17T06:43:15.321Z,5.70
2017-11-17T06:45:42.768Z,5.70
2017-11-17T06:48:10.308Z,5.70
2017-11-17T06:50:37.850Z,5.60
2017-11-17T06:53:05.303Z,5.60
2017-11-17T06:55:33.516Z,5.50
2017-11-17T06:58:00.985Z,5.50
2017-11-17T07:00:28.433Z,5.50
2017-11-17T07:02:55.882Z,5.50
2017-11-17T07:05:24.113Z,5.40
2017-11-17T07:07:51.578Z,5.40
2017-11-17T07:10:19.028Z,5.40
2017-11-17T07:12:47.257Z,5.30
2017-11-17T07:15:14.717Z,5.30
2017-11-17T07:17:42.174Z,5.30
2017-11-17T07:20:10.389Z,5.30
2017-11-17T07:22:37.828Z,5.20
2017-11-17T07:25:05.302Z,5.30
2017-11-17T07:27:32.840Z,5.20
2017-11-17T07:30:00.318Z,5.20
2017-11-17T07:32:27.842Z,5.30
2017-11-17T07:34:55.286Z,5.20
2017-11-17T07:37:23.533Z,5.20
2017-11-17T07:39:51.100Z,5.20
2017-11-17T07:42:19.337Z,5.30
2017-11-17T07:44:46.981Z,5.30
2017-11-17T07:47:14.530Z,5.30
2017-11-17T07:49:41.973Z,5.40
2017-11-17T07:52:10.329Z,5.40
2017-11-17T07:54:37.790Z,5.40
2017-11-17T07:57:06.010Z,5.50
2017-11-17T07:59:33.472Z,5.50
2017-11-17T08:02:00.925Z,5.60
2017-11-17T08:04:29.145Z,5.70
2017-11-17T08:06:56.613Z,5.70
2017-11-17T08:09:24.161Z,5.70
2017-11-17T08:11:51.641Z,5.80
2017-11-17T08:14:19.102Z,5.80
2017-11-17T08:16:46.554Z,5.90
2017-11-17T08:19:14.123Z,5.90
2017-11-17T08:21:41.578Z,6.00
2017-11-17T08:24:09.826Z,6.20
2017-11-17T08:26:37.293Z,6.20
2017-11-17T08:29:04.742Z,6.20
2017-11-17T08:31:32.248Z,6.30
2017-11-17T08:33:59.793Z,6.40
2017-11-17T08:36:27.249Z,6.40
2017-11-17T08:38:55.465Z,6.40
2017-11-17T08:41:22.941Z,6.40
2017-11-17T08:43:50.413Z,6.50
2017-11-17T08:46:17.909Z,6.60
2017-11-17T08:48:45.329Z,6.60
2017-11-17T08:51:12.791Z,6.70
2017-11-17T08:53:41.777Z,6.70
2017-11-17T08:56:09.330Z,6.80
2017-11-17T08:58:36.782Z,6.80
2017-11-17T09:01:05.026Z,6.90
2017-11-17T09:03:32.570Z,6.90
2017-11-17T09:06:00.042Z,6.90
2017-11-17T09:08:27.614Z,7.00
2017-11-17T09:10:55.057Z,7.00
2017-11-17T09:13:22.531Z,7.10
2017-11-17T09:15:50.088Z,7.20
2017-11-17T09:18:17.626Z,7.20
2017-11-17T09:20:45.175Z,7.30
2017-11-17T09:23:12.721Z,7.40
2017-11-17T09:25:40.941Z,7.40
2017-11-17T09:28:08.419Z,7.40
2017-11-17T09:30:36.634Z,7.60
2017-11-17T09:33:04.087Z,7.60
2017-11-17T09:35:31.661Z,7.70
2017-11-17T09:37:59.105Z,7.80
2017-11-17T09:40:26.649Z,7.80
2017-11-17T09:42:54.129Z,7.90
2017-11-17T09:45:21.628Z,7.90
2017-11-17T09:47:49.180Z,8.00
2017-11-17T09:50:16.647Z,8.10
2017-11-17T09:52:44.157Z,8.10
2017-11-17T09:55:12.373Z,8.20
2017-11-17T09:57:39.842Z,8.20
2017-11-17T10:00:07.290Z,8.30
2017-11-17T10:02:34.744Z,8.30
2017-11-17T10:05:02.197Z,8.40
2017-11-17T10:07:30.441Z,8.50
2017-11-17T10:09:57.982Z,8.50
2017-11-17T10:12:25.530Z,8.50
2017-11-17T10:14:53.079Z,8.50
2017-11-17T10:17:20.527Z,8.60
2017-11-17T10:19:48.734Z,8.70
2017-11-17T10:22:16.193Z,8.60
2017-11-17T10:24:43.649Z,8.80
2017-11-17T10:27:11.198Z,8.90
2017-11-17T10:29:38.657Z,8.90
2017-11-17T10:32:06.883Z,8.90
2017-11-17T10:34:34.342Z,8.90
2017-11-17T10:37:01.881Z,9.00
2017-11-17T10:39:29.426Z,9.10
2017-11-17T10:41:57.070Z,9.10
2017-11-17T10:44:24.535Z,9.30
2017-11-17T10:46:52.753Z,9.50
2017-11-17T10:49:20.206Z,9.40
2017-11-17T10:51:47.768Z,9.50
2017-11-17T10:54:15.305Z,9.70
2017-11-17T10:56:42.766Z,9.80
2017-11-17T10:59:16.575Z,10.50
2017-11-17T11:01:44.088Z,10.50
2017-11-17T11:04:14.185Z,12.90
2017-11-17T11:06:42.410Z,14.10
2017-11-17T11:09:09.891Z,14.10
2017-11-17T11:11:43.822Z,16.90
2017-11-17T11:14:11.278Z,16.80
2017-11-17T11:16:38.734Z,17.70
2017-11-17T11:19:06.302Z,17.20
2017-11-17T11:21:33.757Z,17.90
2017-11-17T11:24:01.978Z,18.50
2017-11-17T11:26:29.446Z,18.40
2017-11-17T11:28:57.670Z,19.90
2017-11-17T11:31:25.115Z,19.80
2017-11-17T11:33:52.586Z,19.60
2017-11-17T11:36:20.029Z,19.40
2017-11-17T11:38:48.286Z,20.90
2017-11-17T11:41:15.750Z,20.80
2017-11-17T11:43:43.964Z,22.20
2017-11-17T11:46:11.429Z,22.20
2017-11-17T11:48:38.907Z,22.90
2017-11-17T11:51:06.419Z,23.50
2017-11-17T11:53:33.866Z,23.60
2017-11-17T11:56:02.121Z,23.10
2017-11-17T11:58:30.342Z,23.50
2017-11-17T12:00:57.812Z,23.50
2017-11-17T12:03:25.282Z,24.00
2017-11-17T12:05:53.530Z,23.10
2017-11-17T12:08:21.783Z,21.90
2017-11-17T12:10:49.254Z,21.80
2017-11-17T12:13:16.771Z,22.00
2017-11-17T12:15:44.222Z,21.90
2017-11-17T12:18:12.463Z,22.90
2017-11-17T12:20:39.910Z,22.80
2017-11-17T12:23:07.356Z,23.70
2017-11-17T12:25:35.614Z,25.20
2017-11-17T12:28:03.065Z,25.10
2017-11-17T12:30:31.315Z,24.70
2017-11-17T12:32:58.853Z,24.60
2017-11-17T12:35:26.329Z,25.30
2017-11-17T12:37:53.841Z,25.90
2017-11-17T12:40:21.293Z,25.10
2017-11-17T12:42:49.535Z,26.30
2017-11-17T12:45:16.978Z,26.30
2017-11-17T12:47:44.521Z,26.70
2017-11-17T12:50:11.986Z,27.20
2017-11-17T12:52:40.222Z,27.50
2017-11-17T12:55:07.766Z,27.50
2017-11-17T12:57:35.240Z,27.50
2017-11-17T13:00:02.685Z,27.40
2017-11-17T13:02:30.192Z,27.70
2017-11-17T13:04:57.657Z,27.70
2017-11-17T13:07:25.893Z,25.40
2017-11-17T13:09:53.438Z,25.30
2017-11-17T13:12:20.981Z,23.50
2017-11-17T13:14:48.520Z,21.80
2017-11-17T13:17:16.742Z,18.90
2017-11-17T13:19:44.185Z,18.80
2017-11-17T13:22:11.645Z,17.70
2017-11-17T13:24:39.098Z,16.80
2017-11-17T13:27:06.569Z,15.80
2017-11-17T13:29:34.789Z,17.40
2017-11-17T13:32:02.249Z,17.40
2017-11-17T13:34:29.796Z,18.10
2017-11-17T13:36:58.750Z,20.00
2017-11-17T13:39:26.209Z,20.00
2017-11-17T13:41:53.757Z,21.10
2017-11-17T13:44:21.210Z,20.70
2017-11-17T13:46:49.437Z,22.60
2017-11-17T13:49:16.897Z,22.60
2017-11-17T13:51:44.445Z,23.40
2017-11-17T13:54:11.990Z,24.30
2017-11-17T13:56:39.443Z,24.20
2017-11-17T13:59:07.685Z,23.80
2017-11-17T14:01:35.137Z,23.80
2017-11-17T14:04:03.386Z,22.00
2017-11-17T14:06:30.929Z,21.90
2017-11-17T14:08:58.482Z,22.00
2017-11-17T14:11:26.738Z,23.10
2017-11-17T14:13:54.202Z,23.10
2017-11-17T14:16:22.444Z,23.90
2017-11-17T14:18:50.657Z,23.80
2017-11-17T14:21:18.137Z,23.80
2017-11-17T14:23:46.369Z,22.20
2017-11-17T14:26:13.865Z,22.20
2017-11-17T14:28:42.066Z,21.80
2017-11-17T14:31:09.637Z,21.80
2017-11-17T14:33:37.085Z,21.90
2017-11-17T14:36:04.538Z,22.20
2017-11-17T14:38:32.788Z,22.20
2017-11-17T14:41:00.238Z,22.20
2017-11-17T14:43:28.488Z,21.60
2017-11-17T14:45:56.745Z,20.80
2017-11-17T14:48:24.197Z,20.80
2017-11-17T14:50:52.465Z,19.00
2017-11-17T14:53:20.705Z,18.20
2017-11-17T14:55:48.149Z,18.10
2017-11-17T14:58:15.610Z,17.30
2017-11-17T15:00:43.954Z,16.00
2017-11-17T15:03:11.494Z,15.90
2017-11-17T15:05:39.037Z,15.50
2017-11-17T15:08:06.527Z,15.00
2017-11-17T15:10:33.981Z,14.50
2017-11-17T15:13:01.438Z,14.20
2017-11-17T15:15:28.929Z,13.80
2017-11-17T15:17:56.394Z,13.40
2017-11-17T15:20:23.857Z,13.10
2017-11-17T15:22:51.350Z,12.80
2017-11-17T15:25:19.702Z,12.30
2017-11-17T15:27:47.963Z,12.10
2017-11-17T15:30:16.203Z,11.90
2017-11-17T15:32:43.660Z,11.90
2017-11-17T15:35:11.908Z,11.50
2017-11-17T15:37:39.378Z,11.40
2017-11-17T15:40:07.605Z,11.10
2017-11-17T15:42:35.085Z,11.10
2017-11-17T15:45:02.547Z,11.00
2017-11-17T15:47:30.044Z,10.90
2017-11-17T15:49:57.522Z,10.70
2017-11-17T15:52:25.010Z,10.50
2017-11-17T15:54:52.470Z,10.60
2017-11-17T15:57:19.933Z,10.60
2017-11-17T15:59:47.413Z,10.60
2017-11-17T16:02:14.874Z,10.50
2017-11-17T16:04:42.339Z,10.60
2017-11-17T16:07:10.581Z,10.50
2017-11-17T16:09:38.049Z,10.50
2017-11-17T16:12:06.297Z,10.40
2017-11-17T16:14:33.776Z,10.40
2017-11-17T16:17:01.282Z,10.30
2017-11-17T16:19:29.512Z,10.20
2017-11-17T16:21:56.981Z,10.10
2017-11-17T16:24:24.558Z,10.10
2017-11-17T16:26:52.051Z,10.00
2017-11-17T16:29:19.506Z,9.90
2017-11-17T16:31:47.056Z,9.80
2017-11-17T16:34:14.600Z,9.70
2017-11-17T16:36:42.048Z,9.60
2017-11-17T16:39:10.304Z,9.50
2017-11-17T16:41:37.758Z,9.40
2017-11-17T16:44:06.007Z,9.30
2017-11-17T16:46:34.267Z,9.20
2017-11-17T16:49:01.801Z,9.20
2017-11-17T16:51:29.258Z,9.10
2017-11-17T16:53:57.507Z,8.90
2017-11-17T16:56:25.050Z,8.90
2017-11-17T16:58:52.513Z,8.90
2017-11-17T17:01:20.754Z,8.70
2017-11-17T17:03:48.234Z,8.70
2017-11-17T17:06:15.747Z,8.60
2017-11-17T17:08:43.962Z,8.50
2017-11-17T17:11:11.414Z,8.50
2017-11-17T17:13:38.873Z,8.40
2017-11-17T17:16:06.333Z,8.30
2017-11-17T17:18:34.559Z,8.10
2017-11-17T17:21:02.001Z,8.00
2017-11-17T17:23:29.560Z,8.00
2017-11-17T17:25:57.025Z,8.00
2017-11-17T17:28:24.485Z,7.90
2017-11-17T17:30:52.047Z,7.80
2017-11-17T17:33:19.563Z,7.80
2017-11-17T17:35:47.777Z,7.70
2017-11-17T17:38:15.237Z,7.70
2017-11-17T17:40:42.694Z,7.60
2017-11-17T17:43:10.943Z,7.50
2017-11-17T17:45:39.163Z,7.50
2017-11-17T17:48:06.642Z,7.40
2017-11-17T17:50:34.180Z,7.40
2017-11-17T17:53:01.654Z,7.30
2017-11-17T17:55:29.104Z,7.30
2017-11-17T17:57:56.561Z,7.20
2017-11-17T18:00:24.013Z,7.20
2017-11-17T18:02:51.499Z,7.20
2017-11-17T18:05:19.709Z,7.00
2017-11-17T18:07:47.156Z,7.00
2017-11-17T18:10:14.609Z,7.00
2017-11-17T18:12:42.071Z,6.90
2017-11-17T18:15:09.613Z,6.90
2017-11-17T18:17:37.158Z,6.90
2017-11-17T18:20:04.625Z,6.80
2017-11-17T18:22:32.846Z,6.70
2017-11-17T18:25:00.401Z,6.70
2017-11-17T18:27:27.956Z,6.70
2017-11-17T18:29:55.434Z,6.70
2017-11-17T18:32:23.665Z,6.60
2017-11-17T18:34:52.067Z,6.60
2017-11-17T18:37:19.512Z,6.60
2017-11-17T18:39:47.020Z,6.60
2017-11-17T18:42:15.258Z,6.50
2017-11-17T18:44:43.592Z,6.40
2017-11-17T18:47:11.821Z,6.50
2017-11-17T18:49:39.265Z,6.40
2017-11-17T18:52:06.757Z,6.50
2017-11-17T18:54:34.179Z,6.40
2017-11-17T18:57:01.684Z,6.40
2017-11-17T18:59:29.952Z,6.50
2017-11-17T19:01:58.137Z,6.50
2017-11-17T19:04:25.613Z,6.50
2017-11-17T19:06:53.173Z,6.50
2017-11-17T19:09:21.468Z,6.40
2017-11-17T19:11:49.668Z,6.40
2017-11-17T19:14:17.129Z,6.40
2017-11-17T19:16:45.345Z,6.40
2017-11-17T19:19:12.830Z,6.40
2017-11-17T19:21:41.049Z,6.40
2017-11-17T19:24:08.495Z,6.40
2017-11-17T19:26:35.954Z,6.40
2017-11-17T19:29:03.493Z,6.40
2017-11-17T19:31:31.037Z,6.40
2017-11-17T19:33:58.585Z,6.30
2017-11-17T19:36:26.037Z,6.40
2017-11-17T19:38:54.269Z,6.40
2017-11-17T19:41:21.783Z,6.40
2017-11-17T19:43:49.237Z,6.40
2017-11-17T19:46:16.708Z,6.40
2017-11-17T19:48:44.254Z,6.40
2017-11-17T19:51:11.803Z,6.50
2017-11-17T19:53:39.342Z,6.50
2017-11-17T19:56:06.892Z,6.60
2017-11-17T19:58:34.337Z,6.70
2017-11-17T20:01:02.563Z,6.80
2017-11-17T20:03:30.021Z,6.80
2017-11-17T20:05:57.501Z,6.80
2017-11-17T20:08:25.009Z,6.90
2017-11-17T20:10:54.049Z,6.90
2017-11-17T20:13:21.602Z,6.90
2017-11-17T20:15:49.050Z,7.00
2017-11-17T20:18:16.513Z,7.00
2017-11-17T20:20:45.473Z,6.80
2017-11-17T20:23:13.047Z,6.80
2017-11-17T20:25:41.301Z,6.80
2017-11-17T20:28:08.794Z,6.80
2017-11-17T20:30:36.275Z,6.80
2017-11-17T20:33:03.821Z,6.90
2017-11-17T20:35:31.293Z,6.90
2017-11-17T20:37:58.818Z,6.90
2017-11-17T20:40:27.182Z,6.90
2017-11-17T20:42:55.518Z,6.90
2017-11-17T20:45:22.977Z,6.90
2017-11-17T20:47:50.521Z,6.80
2017-11-17T20:50:18.777Z,6.80
2017-11-17T20:52:46.246Z,6.80
2017-11-17T20:55:13.703Z,6.70
2017-11-17T20:57:41.151Z,6.70
2017-11-17T21:00:08.610Z,6.70
2017-11-17T21:02:36.064Z,6.70
2017-11-17T21:05:03.628Z,6.70
2017-11-17T21:07:31.169Z,6.70
2017-11-17T21:09:58.721Z,6.70
2017-11-17T21:12:26.181Z,6.60
2017-11-17T21:14:54.426Z,6.60
2017-11-17T21:17:22.686Z,6.50
2017-11-17T21:19:50.903Z,6.50
2017-11-17T21:22:18.371Z,6.50
2017-11-17T21:24:45.838Z,6.40
2017-11-17T21:27:14.087Z,6.30
2017-11-17T21:29:42.306Z,6.20
2017-11-17T21:32:09.770Z,6.20
2017-11-17T21:34:37.326Z,6.20
2017-11-17T21:37:04.796Z,6.10
2017-11-17T21:39:33.029Z,6.10
2017-11-17T21:42:00.480Z,6.10
2017-11-17T21:44:28.729Z,6.10
2017-11-17T21:46:56.185Z,6.10
2017-11-17T21:49:24.429Z,6.00
2017-11-17T21:51:51.897Z,6.00
2017-11-17T21:54:20.110Z,6.00
2017-11-17T21:56:47.573Z,6.00
2017-11-17T21:59:15.118Z,6.00
2017-11-17T22:01:42.566Z,5.90
2017-11-17T22:04:10.804Z,5.80
2017-11-17T22:06:38.249Z,5.80
2017-11-17T22:09:05.696Z,5.80
2017-11-17T22:11:33.161Z,5.60
2017-11-17T22:14:01.373Z,5.50
2017-11-17T22:16:28.833Z,5.50
2017-11-17T22:18:57.818Z,5.50
2017-11-17T22:21:25.371Z,5.50
2017-11-17T22:23:52.894Z,5.50
2017-11-17T22:26:20.494Z,5.50
2017-11-17T22:28:48.739Z,5.40
2017-11-17T22:31:16.196Z,5.40
2017-11-17T22:33:43.693Z,5.40
2017-11-17T22:36:11.158Z,5.40
2017-11-17T22:38:39.397Z,5.30
2017-11-17T22:41:07.660Z,5.40
2017-11-17T22:43:35.877Z,5.30
2017-11-17T22:46:03.377Z,5.30
2017-11-17T22:48:31.697Z,5.40
2017-11-17T22:50:59.169Z,5.40
2017-11-17T22:53:26.707Z,5.40
2017-11-17T22:55:54.250Z,5.40
2017-11-17T22:58:21.707Z,5.40
2017-11-17T23:00:49.957Z,5.40
2017-11-17T23:03:18.194Z,5.30
2017-11-17T23:05:45.647Z,5.40
2017-11-17T23:08:13.099Z,5.30
2017-11-17T23:10:41.354Z,5.20
2017-11-17T23:13:08.823Z,5.20
2017-11-17T23:15:37.038Z,5.10
2017-11-17T23:18:04.497Z,5.00
2017-11-17T23:20:31.953Z,5.00
2017-11-17T23:23:00.171Z,4.90
2017-11-17T23:25:27.625Z,4.90
2017-11-17T23:27:55.185Z,4.80
2017-11-17T23:30:22.729Z,4.80
2017-11-17T23:32:50.942Z,4.80
2017-11-17T23:35:18.414Z,4.70
2017-11-17T23:37:45.969Z,4.80
2017-11-17T23:40:13.509Z,4.70
2017-11-17T23:42:41.057Z,4.70
2017-11-17T23:45:08.602Z,4.70
2017-11-17T23:47:36.148Z,4.70
2017-11-17T23:50:04.461Z,4.60
2017-11-17T23:52:31.923Z,4.60
2017-11-17T23:54:59.382Z,4.60
2017-11-17T23:57:26.857Z,4.60
2017-11-17T23:59:54.310Z,4.60
